sensor_id;sensor_type;location;lat;lon;timestamp;temperature;humidity
22288;DHT22;11312;51.464;6.968;2022-08-19T00:01:54;19.10;99.90
22288;DHT22;11312;51.464;6.968;2022-08-19T00:04:32;19.10;99.90
22288;DHT22;11312;51.464;6.968;2022-08-19T00:06:58;19.00;99.90
22288;DHT22;11312;51.464;6.968;2022-08-19T00:09:24;19.00;99.90
22288;DHT22;11312;51.464;6.968;2022-08-19T00:11:51;19.00;99.90
22288;DHT22;11312;51.464;6.968;2022-08-19T00:14:17;19.00;99.90
22288;DHT22;11312;51.464;6.968;2022-08-19T00:16:45;19.00;99.90
22288;DHT22;11312;51.464;6.968;2022-08-19T00:19:11;19.00;99.90
22288;DHT22;11312;51.464;6.968;2022-08-19T00:21:37;19.00;99.90
22288;DHT22;11312;51.464;6.968;2022-08-19T00:24:06;18.90;99.90
22288;DHT22;11312;51.464;6.968;2022-08-19T00:26:31;18.90;99.90
22288;DHT22;11312;51.464;6.968;2022-08-19T00:28:57;18.90;99.90
22288;DHT22;11312;51.464;6.968;2022-08-19T00:31:23;19.00;99.90
22288;DHT22;11312;51.464;6.968;2022-08-19T00:33:50;18.90;99.90
22288;DHT22;11312;51.464;6.968;2022-08-19T00:36:16;18.80;99.90
22288;DHT22;11312;51.464;6.968;2022-08-19T00:38:42;18.80;99.90
22288;DHT22;11312;51.464;6.968;2022-08-19T00:41:11;18.80;99.90
22288;DHT22;11312;51.464;6.968;2022-08-19T00:43:37;18.90;99.90
22288;DHT22;11312;51.464;6.968;2022-08-19T00:46:04;18.70;99.90
22288;DHT22;11312;51.464;6.968;2022-08-19T00:48:31;18.80;99.90
22288;DHT22;11312;51.464;6.968;2022-08-19T00:50:57;18.60;99.90
22288;DHT22;11312;51.464;6.968;2022-08-19T00:53:26;18.70;99.90
22288;DHT22;11312;51.464;6.968;2022-08-19T00:55:56;18.70;99.90
22288;DHT22;11312;51.464;6.968;2022-08-19T00:58:28;18.70;99.90
22288;DHT22;11312;51.464;6.968;2022-08-19T01:00:54;18.60;99.90
22288;DHT22;11312;51.464;6.968;2022-08-19T01:03:21;18.60;99.90
22288;DHT22;11312;51.464;6.968;2022-08-19T01:05:48;18.60;99.90
22288;DHT22;11312;51.464;6.968;2022-08-19T01:08:16;18.60;99.90
22288;DHT22;11312;51.464;6.968;2022-08-19T01:10:46;18.60;99.90
22288;DHT22;11312;51.464;6.968;2022-08-19T01:13:19;18.50;99.90
22288;DHT22;11312;51.464;6.968;2022-08-19T01:15:50;18.50;99.90
22288;DHT22;11312;51.464;6.968;2022-08-19T01:18:19;18.50;99.90
22288;DHT22;11312;51.464;6.968;2022-08-19T01:20:46;18.50;99.90
22288;DHT22;11312;51.464;6.968;2022-08-19T01:23:13;18.50;99.90
22288;DHT22;11312;51.464;6.968;2022-08-19T01:25:46;18.40;99.90
22288;DHT22;11312;51.464;6.968;2022-08-19T01:28:25;18.50;99.90
22288;DHT22;11312;51.464;6.968;2022-08-19T01:30:52;18.40;99.90
22288;DHT22;11312;51.464;6.968;2022-08-19T01:33:19;18.40;99.90
22288;DHT22;11312;51.464;6.968;2022-08-19T01:35:45;18.40;99.90
22288;DHT22;11312;51.464;6.968;2022-08-19T01:38:24;18.50;99.90
22288;DHT22;11312;51.464;6.968;2022-08-19T01:40:50;18.40;99.90
22288;DHT22;11312;51.464;6.968;2022-08-19T01:43:16;18.30;99.90
22288;DHT22;11312;51.464;6.968;2022-08-19T01:45:45;18.30;99.90
22288;DHT22;11312;51.464;6.968;2022-08-19T01:48:12;18.30;99.90
22288;DHT22;11312;51.464;6.968;2022-08-19T01:50:38;18.30;99.90
22288;DHT22;11312;51.464;6.968;2022-08-19T01:53:07;18.30;99.90
22288;DHT22;11312;51.464;6.968;2022-08-19T01:55:36;18.30;99.90
22288;DHT22;11312;51.464;6.968;2022-08-19T01:58:04;18.30;99.90
22288;DHT22;11312;51.464;6.968;2022-08-19T02:00:32;18.30;99.90
22288;DHT22;11312;51.464;6.968;2022-08-19T02:02:57;18.20;99.90
22288;DHT22;11312;51.464;6.968;2022-08-19T02:05:23;18.20;99.90
22288;DHT22;11312;51.464;6.968;2022-08-19T02:07:49;18.20;99.90
22288;DHT22;11312;51.464;6.968;2022-08-19T02:10:19;18.20;99.90
22288;DHT22;11312;51.464;6.968;2022-08-19T02:12:45;18.10;99.90
22288;DHT22;11312;51.464;6.968;2022-08-19T02:15:11;18.10;99.90
22288;DHT22;11312;51.464;6.968;2022-08-19T02:17:37;18.00;99.90
22288;DHT22;11312;51.464;6.968;2022-08-19T02:20:03;18.10;99.90
22288;DHT22;11312;51.464;6.968;2022-08-19T02:22:29;18.10;99.90
22288;DHT22;11312;51.464;6.968;2022-08-19T02:24:55;18.10;99.90
22288;DHT22;11312;51.464;6.968;2022-08-19T02:27:22;18.00;99.90
22288;DHT22;11312;51.464;6.968;2022-08-19T02:29:49;17.90;99.90
22288;DHT22;11312;51.464;6.968;2022-08-19T02:32:16;18.00;99.90
22288;DHT22;11312;51.464;6.968;2022-08-19T02:34:42;18.00;99.90
22288;DHT22;11312;51.464;6.968;2022-08-19T02:37:08;18.10;99.90
22288;DHT22;11312;51.464;6.968;2022-08-19T02:39:53;18.20;99.90
22288;DHT22;11312;51.464;6.968;2022-08-19T02:42:19;18.00;99.90
22288;DHT22;11312;51.464;6.968;2022-08-19T02:44:44;18.00;99.90
22288;DHT22;11312;51.464;6.968;2022-08-19T02:47:10;18.00;99.90
22288;DHT22;11312;51.464;6.968;2022-08-19T02:49:36;18.00;99.90
22288;DHT22;11312;51.464;6.968;2022-08-19T02:52:02;17.90;99.90
22288;DHT22;11312;51.464;6.968;2022-08-19T02:54:28;17.90;99.90
22288;DHT22;11312;51.464;6.968;2022-08-19T02:56:54;17.90;99.90
22288;DHT22;11312;51.464;6.968;2022-08-19T02:59:19;17.90;99.90
22288;DHT22;11312;51.464;6.968;2022-08-19T03:01:45;17.90;99.90
22288;DHT22;11312;51.464;6.968;2022-08-19T03:04:13;17.90;99.90
22288;DHT22;11312;51.464;6.968;2022-08-19T03:06:42;18.00;99.90
22288;DHT22;11312;51.464;6.968;2022-08-19T03:09:08;18.00;99.90
22288;DHT22;11312;51.464;6.968;2022-08-19T03:11:35;18.10;99.90
22288;DHT22;11312;51.464;6.968;2022-08-19T03:14:01;17.90;99.90
22288;DHT22;11312;51.464;6.968;2022-08-19T03:16:31;17.90;99.90
22288;DHT22;11312;51.464;6.968;2022-08-19T03:18:57;17.90;99.90
22288;DHT22;11312;51.464;6.968;2022-08-19T03:21:30;17.90;99.90
22288;DHT22;11312;51.464;6.968;2022-08-19T03:23:58;17.80;99.90
22288;DHT22;11312;51.464;6.968;2022-08-19T03:26:24;17.90;99.90
22288;DHT22;11312;51.464;6.968;2022-08-19T03:28:49;17.90;99.90
22288;DHT22;11312;51.464;6.968;2022-08-19T03:31:18;17.80;99.90
22288;DHT22;11312;51.464;6.968;2022-08-19T03:33:44;17.80;99.90
22288;DHT22;11312;51.464;6.968;2022-08-19T03:36:17;17.80;99.90
22288;DHT22;11312;51.464;6.968;2022-08-19T03:38:50;17.80;99.90
22288;DHT22;11312;51.464;6.968;2022-08-19T03:41:21;17.80;99.90
22288;DHT22;11312;51.464;6.968;2022-08-19T03:43:47;17.80;99.90
22288;DHT22;11312;51.464;6.968;2022-08-19T03:46:16;17.80;99.90
22288;DHT22;11312;51.464;6.968;2022-08-19T03:48:43;17.80;99.90
22288;DHT22;11312;51.464;6.968;2022-08-19T03:51:17;17.70;99.90
22288;DHT22;11312;51.464;6.968;2022-08-19T03:53:45;17.80;99.90
22288;DHT22;11312;51.464;6.968;2022-08-19T03:56:12;17.80;99.90
22288;DHT22;11312;51.464;6.968;2022-08-19T03:58:39;17.70;99.90
22288;DHT22;11312;51.464;6.968;2022-08-19T04:01:10;17.70;99.90
22288;DHT22;11312;51.464;6.968;2022-08-19T04:03:36;17.70;99.90
22288;DHT22;11312;51.464;6.968;2022-08-19T04:06:22;17.70;99.90
22288;DHT22;11312;51.464;6.968;2022-08-19T04:08:50;17.70;99.90
22288;DHT22;11312;51.464;6.968;2022-08-19T04:11:19;17.70;99.90
22288;DHT22;11312;51.464;6.968;2022-08-19T04:13:48;17.70;99.90
22288;DHT22;11312;51.464;6.968;2022-08-19T04:16:14;17.70;99.90
22288;DHT22;11312;51.464;6.968;2022-08-19T04:18:40;17.70;99.90
22288;DHT22;11312;51.464;6.968;2022-08-19T04:21:07;17.70;99.90
22288;DHT22;11312;51.464;6.968;2022-08-19T04:23:34;17.70;99.90
22288;DHT22;11312;51.464;6.968;2022-08-19T04:26:02;17.70;99.90
22288;DHT22;11312;51.464;6.968;2022-08-19T04:28:28;17.70;99.90
22288;DHT22;11312;51.464;6.968;2022-08-19T04:30:54;17.80;99.90
22288;DHT22;11312;51.464;6.968;2022-08-19T04:33:26;17.70;99.90
22288;DHT22;11312;51.464;6.968;2022-08-19T04:35:54;17.60;99.90
22288;DHT22;11312;51.464;6.968;2022-08-19T04:38:21;17.60;99.90
22288;DHT22;11312;51.464;6.968;2022-08-19T04:40:51;17.60;99.90
22288;DHT22;11312;51.464;6.968;2022-08-19T04:43:37;17.70;99.90
22288;DHT22;11312;51.464;6.968;2022-08-19T04:46:08;17.70;99.90
22288;DHT22;11312;51.464;6.968;2022-08-19T04:48:35;17.70;99.90
22288;DHT22;11312;51.464;6.968;2022-08-19T04:51:05;17.70;99.90
22288;DHT22;11312;51.464;6.968;2022-08-19T04:53:33;17.70;99.90
22288;DHT22;11312;51.464;6.968;2022-08-19T04:56:05;17.70;99.90
22288;DHT22;11312;51.464;6.968;2022-08-19T04:58:33;17.80;99.90
22288;DHT22;11312;51.464;6.968;2022-08-19T05:00:59;17.80;99.90
22288;DHT22;11312;51.464;6.968;2022-08-19T05:03:25;17.90;99.90
22288;DHT22;11312;51.464;6.968;2022-08-19T05:05:52;17.80;99.90
22288;DHT22;11312;51.464;6.968;2022-08-19T05:08:20;17.90;99.90
22288;DHT22;11312;51.464;6.968;2022-08-19T05:10:48;17.90;99.90
22288;DHT22;11312;51.464;6.968;2022-08-19T05:13:15;17.90;99.90
22288;DHT22;11312;51.464;6.968;2022-08-19T05:15:42;17.90;99.90
22288;DHT22;11312;51.464;6.968;2022-08-19T05:18:07;17.90;99.90
22288;DHT22;11312;51.464;6.968;2022-08-19T05:20:52;18.00;99.90
22288;DHT22;11312;51.464;6.968;2022-08-19T05:23:36;18.10;99.90
22288;DHT22;11312;51.464;6.968;2022-08-19T05:26:02;18.10;99.90
22288;DHT22;11312;51.464;6.968;2022-08-19T05:28:27;18.30;99.90
22288;DHT22;11312;51.464;6.968;2022-08-19T05:30:53;18.30;99.90
22288;DHT22;11312;51.464;6.968;2022-08-19T05:33:21;18.40;99.90
22288;DHT22;11312;51.464;6.968;2022-08-19T05:35:47;18.50;99.90
22288;DHT22;11312;51.464;6.968;2022-08-19T05:38:15;18.50;99.90
22288;DHT22;11312;51.464;6.968;2022-08-19T05:40:42;18.40;99.90
22288;DHT22;11312;51.464;6.968;2022-08-19T05:43:12;18.40;99.90
22288;DHT22;11312;51.464;6.968;2022-08-19T05:45:41;18.50;99.90
22288;DHT22;11312;51.464;6.968;2022-08-19T05:48:09;18.50;99.90
22288;DHT22;11312;51.464;6.968;2022-08-19T05:50:38;18.50;99.90
22288;DHT22;11312;51.464;6.968;2022-08-19T05:53:05;18.60;99.90
22288;DHT22;11312;51.464;6.968;2022-08-19T05:55:31;18.60;99.90
22288;DHT22;11312;51.464;6.968;2022-08-19T05:57:57;18.70;99.90
22288;DHT22;11312;51.464;6.968;2022-08-19T06:00:23;18.90;99.90
22288;DHT22;11312;51.464;6.968;2022-08-19T06:02:49;19.30;99.90
22288;DHT22;11312;51.464;6.968;2022-08-19T06:05:16;19.60;99.90
22288;DHT22;11312;51.464;6.968;2022-08-19T06:07:42;19.90;99.90
22288;DHT22;11312;51.464;6.968;2022-08-19T06:10:10;20.20;99.90
22288;DHT22;11312;51.464;6.968;2022-08-19T06:12:37;20.30;99.90
22288;DHT22;11312;51.464;6.968;2022-08-19T06:15:11;20.20;99.90
22288;DHT22;11312;51.464;6.968;2022-08-19T06:17:37;20.10;99.90
22288;DHT22;11312;51.464;6.968;2022-08-19T06:20:04;20.40;99.90
22288;DHT22;11312;51.464;6.968;2022-08-19T06:22:30;20.30;99.90
22288;DHT22;11312;51.464;6.968;2022-08-19T06:24:56;20.30;99.90
22288;DHT22;11312;51.464;6.968;2022-08-19T06:27:22;20.10;99.90
22288;DHT22;11312;51.464;6.968;2022-08-19T06:29:48;19.90;99.90
22288;DHT22;11312;51.464;6.968;2022-08-19T06:32:16;19.80;99.90
22288;DHT22;11312;51.464;6.968;2022-08-19T06:34:42;19.70;99.90
22288;DHT22;11312;51.464;6.968;2022-08-19T06:37:08;19.50;99.90
22288;DHT22;11312;51.464;6.968;2022-08-19T06:39:36;19.60;99.90
22288;DHT22;11312;51.464;6.968;2022-08-19T06:42:04;19.60;99.90
22288;DHT22;11312;51.464;6.968;2022-08-19T06:44:35;19.50;99.90
22288;DHT22;11312;51.464;6.968;2022-08-19T06:47:05;19.50;99.90
22288;DHT22;11312;51.464;6.968;2022-08-19T06:49:31;19.50;99.90
22288;DHT22;11312;51.464;6.968;2022-08-19T06:51:58;20.00;99.90
22288;DHT22;11312;51.464;6.968;2022-08-19T06:54:24;20.20;99.90
22288;DHT22;11312;51.464;6.968;2022-08-19T06:56:51;20.40;99.90
22288;DHT22;11312;51.464;6.968;2022-08-19T06:59:20;21.00;99.90
22288;DHT22;11312;51.464;6.968;2022-08-19T07:01:49;21.20;99.90
22288;DHT22;11312;51.464;6.968;2022-08-19T07:04:20;21.70;99.90
22288;DHT22;11312;51.464;6.968;2022-08-19T07:06:46;21.90;99.90
22288;DHT22;11312;51.464;6.968;2022-08-19T07:09:15;21.90;1.00
22288;DHT22;11312;51.464;6.968;2022-08-19T07:11:48;21.40;1.00
22288;DHT22;11312;51.464;6.968;2022-08-19T07:14:17;21.40;23.30
22288;DHT22;11312;51.464;6.968;2022-08-19T07:16:44;21.40;99.90
22288;DHT22;11312;51.464;6.968;2022-08-19T07:19:13;21.70;99.90
22288;DHT22;11312;51.464;6.968;2022-08-19T07:21:40;22.10;99.90
22288;DHT22;11312;51.464;6.968;2022-08-19T07:24:06;22.10;99.90
22288;DHT22;11312;51.464;6.968;2022-08-19T07:26:37;22.50;99.90
22288;DHT22;11312;51.464;6.968;2022-08-19T07:29:04;22.90;99.90
22288;DHT22;11312;51.464;6.968;2022-08-19T07:31:30;22.80;99.90
22288;DHT22;11312;51.464;6.968;2022-08-19T07:33:57;22.50;99.90
22288;DHT22;11312;51.464;6.968;2022-08-19T07:36:26;22.10;1.00
22288;DHT22;11312;51.464;6.968;2022-08-19T07:38:56;21.80;99.90
22288;DHT22;11312;51.464;6.968;2022-08-19T07:41:25;21.90;99.90
22288;DHT22;11312;51.464;6.968;2022-08-19T07:43:52;22.30;99.90
22288;DHT22;11312;51.464;6.968;2022-08-19T07:46:18;22.60;99.90
22288;DHT22;11312;51.464;6.968;2022-08-19T07:48:47;22.90;99.90
22288;DHT22;11312;51.464;6.968;2022-08-19T07:51:16;23.20;99.90
22288;DHT22;11312;51.464;6.968;2022-08-19T07:53:42;23.40;99.90
22288;DHT22;11312;51.464;6.968;2022-08-19T07:56:12;22.90;99.90
22288;DHT22;11312;51.464;6.968;2022-08-19T07:58:40;22.40;99.90
22288;DHT22;11312;51.464;6.968;2022-08-19T08:01:08;22.80;99.90
22288;DHT22;11312;51.464;6.968;2022-08-19T08:03:36;23.50;99.90
22288;DHT22;11312;51.464;6.968;2022-08-19T08:06:21;24.30;99.90
22288;DHT22;11312;51.464;6.968;2022-08-19T08:09:15;25.30;99.90
22288;DHT22;11312;51.464;6.968;2022-08-19T08:11:52;25.70;99.90
22288;DHT22;11312;51.464;6.968;2022-08-19T08:14:23;25.30;99.90
22288;DHT22;11312;51.464;6.968;2022-08-19T08:16:50;26.20;99.90
22288;DHT22;11312;51.464;6.968;2022-08-19T08:19:21;26.50;99.90
22288;DHT22;11312;51.464;6.968;2022-08-19T08:21:47;26.20;1.00
22288;DHT22;11312;51.464;6.968;2022-08-19T08:24:14;26.60;1.00
22288;DHT22;11312;51.464;6.968;2022-08-19T08:26:40;27.30;99.90
22288;DHT22;11312;51.464;6.968;2022-08-19T08:29:06;27.70;99.90
22288;DHT22;11312;51.464;6.968;2022-08-19T08:31:36;27.30;99.90
22288;DHT22;11312;51.464;6.968;2022-08-19T08:34:02;27.40;99.90
22288;DHT22;11312;51.464;6.968;2022-08-19T08:36:28;27.40;99.90
22288;DHT22;11312;51.464;6.968;2022-08-19T08:38:54;26.40;99.90
22288;DHT22;11312;51.464;6.968;2022-08-19T08:41:42;26.60;1.00
22288;DHT22;11312;51.464;6.968;2022-08-19T08:44:39;26.20;1.00
22288;DHT22;11312;51.464;6.968;2022-08-19T08:47:15;25.70;99.90
22288;DHT22;11312;51.464;6.968;2022-08-19T08:49:53;25.60;1.00
22288;DHT22;11312;51.464;6.968;2022-08-19T08:52:27;25.60;1.00
22288;DHT22;11312;51.464;6.968;2022-08-19T08:54:57;26.00;1.00
22288;DHT22;11312;51.464;6.968;2022-08-19T08:57:36;26.80;99.90
22288;DHT22;11312;51.464;6.968;2022-08-19T09:00:07;27.40;1.00
22288;DHT22;11312;51.464;6.968;2022-08-19T09:02:35;27.20;1.00
22288;DHT22;11312;51.464;6.968;2022-08-19T09:05:01;27.00;1.00
22288;DHT22;11312;51.464;6.968;2022-08-19T09:07:50;26.50;99.90
22288;DHT22;11312;51.464;6.968;2022-08-19T09:10:29;26.30;99.90
22288;DHT22;11312;51.464;6.968;2022-08-19T09:15:56;25.90;99.90
22288;DHT22;11312;51.464;6.968;2022-08-19T09:18:22;25.20;1.00
22288;DHT22;11312;51.464;6.968;2022-08-19T09:20:48;25.50;99.90
22288;DHT22;11312;51.464;6.968;2022-08-19T09:23:14;26.10;99.90
22288;DHT22;11312;51.464;6.968;2022-08-19T09:25:40;26.70;1.00
22288;DHT22;11312;51.464;6.968;2022-08-19T09:28:06;27.10;1.00
22288;DHT22;11312;51.464;6.968;2022-08-19T09:30:34;27.40;1.00
22288;DHT22;11312;51.464;6.968;2022-08-19T09:33:05;27.70;1.00
22288;DHT22;11312;51.464;6.968;2022-08-19T09:35:31;28.00;1.00
22288;DHT22;11312;51.464;6.968;2022-08-19T09:37:58;27.70;99.90
22288;DHT22;11312;51.464;6.968;2022-08-19T09:40:26;27.50;99.90
22288;DHT22;11312;51.464;6.968;2022-08-19T09:42:52;27.60;1.00
22288;DHT22;11312;51.464;6.968;2022-08-19T09:45:20;26.90;1.00
22288;DHT22;11312;51.464;6.968;2022-08-19T09:47:48;27.20;99.90
22288;DHT22;11312;51.464;6.968;2022-08-19T09:50:14;27.80;1.00
22288;DHT22;11312;51.464;6.968;2022-08-19T09:52:40;28.70;1.00
22288;DHT22;11312;51.464;6.968;2022-08-19T09:55:09;29.10;1.00
22288;DHT22;11312;51.464;6.968;2022-08-19T09:57:35;29.00;1.00
22288;DHT22;11312;51.464;6.968;2022-08-19T10:00:03;29.40;99.90
22288;DHT22;11312;51.464;6.968;2022-08-19T10:02:29;29.40;99.90
22288;DHT22;11312;51.464;6.968;2022-08-19T10:04:54;29.40;13.10
22288;DHT22;11312;51.464;6.968;2022-08-19T10:07:39;29.50;99.90
22288;DHT22;11312;51.464;6.968;2022-08-19T10:10:06;29.20;1.00
22288;DHT22;11312;51.464;6.968;2022-08-19T10:12:33;29.20;1.00
22288;DHT22;11312;51.464;6.968;2022-08-19T10:15:00;29.20;1.00
22288;DHT22;11312;51.464;6.968;2022-08-19T10:17:26;29.10;99.90
22288;DHT22;11312;51.464;6.968;2022-08-19T10:19:51;29.10;1.00
22288;DHT22;11312;51.464;6.968;2022-08-19T10:22:18;29.00;99.90
22288;DHT22;11312;51.464;6.968;2022-08-19T10:24:45;29.00;99.90
22288;DHT22;11312;51.464;6.968;2022-08-19T10:27:12;29.00;1.00
22288;DHT22;11312;51.464;6.968;2022-08-19T10:29:39;29.20;1.00
22288;DHT22;11312;51.464;6.968;2022-08-19T10:32:07;29.40;1.00
22288;DHT22;11312;51.464;6.968;2022-08-19T10:34:35;29.10;99.90
22288;DHT22;11312;51.464;6.968;2022-08-19T10:37:02;28.80;89.00
22288;DHT22;11312;51.464;6.968;2022-08-19T10:39:31;28.40;1.00
22288;DHT22;11312;51.464;6.968;2022-08-19T10:41:57;27.80;1.00
22288;DHT22;11312;51.464;6.968;2022-08-19T10:44:23;28.50;99.90
22288;DHT22;11312;51.464;6.968;2022-08-19T10:46:49;28.70;1.00
22288;DHT22;11312;51.464;6.968;2022-08-19T10:49:15;29.20;99.90
22288;DHT22;11312;51.464;6.968;2022-08-19T10:51:41;29.70;1.00
22288;DHT22;11312;51.464;6.968;2022-08-19T10:54:26;29.50;1.00
22288;DHT22;11312;51.464;6.968;2022-08-19T10:57:13;29.60;8.70
22288;DHT22;11312;51.464;6.968;2022-08-19T10:59:39;28.80;1.00
22288;DHT22;11312;51.464;6.968;2022-08-19T11:02:08;27.90;93.90
22288;DHT22;11312;51.464;6.968;2022-08-19T11:04:36;27.40;1.00
22288;DHT22;11312;51.464;6.968;2022-08-19T11:07:03;26.80;1.00
22288;DHT22;11312;51.464;6.968;2022-08-19T11:09:29;26.50;1.00
22288;DHT22;11312;51.464;6.968;2022-08-19T11:11:55;26.70;99.90
22288;DHT22;11312;51.464;6.968;2022-08-19T11:14:22;27.80;1.00
22288;DHT22;11312;51.464;6.968;2022-08-19T11:16:51;29.20;1.00
22288;DHT22;11312;51.464;6.968;2022-08-19T11:19:19;28.60;1.00
22288;DHT22;11312;51.464;6.968;2022-08-19T11:21:47;27.80;1.00
22288;DHT22;11312;51.464;6.968;2022-08-19T11:24:16;27.40;99.90
22288;DHT22;11312;51.464;6.968;2022-08-19T11:26:43;28.30;1.00
22288;DHT22;11312;51.464;6.968;2022-08-19T11:29:10;29.20;1.00
22288;DHT22;11312;51.464;6.968;2022-08-19T11:31:40;30.00;1.00
22288;DHT22;11312;51.464;6.968;2022-08-19T11:34:08;30.80;1.00
22288;DHT22;11312;51.464;6.968;2022-08-19T11:36:38;30.70;1.00
22288;DHT22;11312;51.464;6.968;2022-08-19T11:39:07;31.40;1.00
22288;DHT22;11312;51.464;6.968;2022-08-19T11:41:34;30.90;1.00
22288;DHT22;11312;51.464;6.968;2022-08-19T11:43:59;29.40;1.00
22288;DHT22;11312;51.464;6.968;2022-08-19T11:46:26;29.80;1.00
22288;DHT22;11312;51.464;6.968;2022-08-19T11:48:55;30.50;1.00
22288;DHT22;11312;51.464;6.968;2022-08-19T11:51:22;31.30;1.00
22288;DHT22;11312;51.464;6.968;2022-08-19T11:53:50;31.90;1.00
22288;DHT22;11312;51.464;6.968;2022-08-19T11:56:17;32.10;99.90
22288;DHT22;11312;51.464;6.968;2022-08-19T11:58:44;32.30;99.90
22288;DHT22;11312;51.464;6.968;2022-08-19T12:01:12;32.70;99.90
22288;DHT22;11312;51.464;6.968;2022-08-19T12:03:38;33.00;99.90
22288;DHT22;11312;51.464;6.968;2022-08-19T12:06:08;33.50;99.90
22288;DHT22;11312;51.464;6.968;2022-08-19T12:08:35;34.70;99.90
22288;DHT22;11312;51.464;6.968;2022-08-19T12:11:01;35.10;99.90
22288;DHT22;11312;51.464;6.968;2022-08-19T12:13:28;35.90;99.90
22288;DHT22;11312;51.464;6.968;2022-08-19T12:15:53;33.00;99.90
22288;DHT22;11312;51.464;6.968;2022-08-19T12:18:19;31.30;99.90
22288;DHT22;11312;51.464;6.968;2022-08-19T12:20:45;31.70;99.90
22288;DHT22;11312;51.464;6.968;2022-08-19T12:23:12;32.50;99.90
22288;DHT22;11312;51.464;6.968;2022-08-19T12:25:44;30.70;99.90
22288;DHT22;11312;51.464;6.968;2022-08-19T12:28:16;31.10;99.90
22288;DHT22;11312;51.464;6.968;2022-08-19T12:30:41;31.80;99.90
22288;DHT22;11312;51.464;6.968;2022-08-19T12:33:07;31.90;99.90
22288;DHT22;11312;51.464;6.968;2022-08-19T12:35:33;32.20;99.90
22288;DHT22;11312;51.464;6.968;2022-08-19T12:37:59;32.60;99.90
22288;DHT22;11312;51.464;6.968;2022-08-19T12:40:25;32.90;99.90
22288;DHT22;11312;51.464;6.968;2022-08-19T12:42:52;33.00;99.90
22288;DHT22;11312;51.464;6.968;2022-08-19T12:45:17;32.70;99.90
22288;DHT22;11312;51.464;6.968;2022-08-19T12:47:44;32.50;99.90
22288;DHT22;11312;51.464;6.968;2022-08-19T12:50:11;33.00;99.90
22288;DHT22;11312;51.464;6.968;2022-08-19T12:52:37;33.20;99.90
22288;DHT22;11312;51.464;6.968;2022-08-19T12:55:05;33.40;99.90
22288;DHT22;11312;51.464;6.968;2022-08-19T12:57:32;34.30;99.90
22288;DHT22;11312;51.464;6.968;2022-08-19T13:00:17;33.70;99.90
22288;DHT22;11312;51.464;6.968;2022-08-19T13:02:45;33.90;99.90
22288;DHT22;11312;51.464;6.968;2022-08-19T13:05:13;30.90;99.90
22288;DHT22;11312;51.464;6.968;2022-08-19T13:07:40;30.90;99.90
22288;DHT22;11312;51.464;6.968;2022-08-19T13:10:07;32.50;99.90
22288;DHT22;11312;51.464;6.968;2022-08-19T13:12:33;31.50;99.90
22288;DHT22;11312;51.464;6.968;2022-08-19T13:14:59;30.90;99.90
22288;DHT22;11312;51.464;6.968;2022-08-19T13:17:25;30.60;1.00
22288;DHT22;11312;51.464;6.968;2022-08-19T13:19:50;31.00;1.00
22288;DHT22;11312;51.464;6.968;2022-08-19T13:22:16;31.90;99.90
22288;DHT22;11312;51.464;6.968;2022-08-19T13:24:42;32.20;99.90
22288;DHT22;11312;51.464;6.968;2022-08-19T13:27:09;32.30;99.90
22288;DHT22;11312;51.464;6.968;2022-08-19T13:29:35;32.10;99.90
22288;DHT22;11312;51.464;6.968;2022-08-19T13:32:20;32.50;99.90
22288;DHT22;11312;51.464;6.968;2022-08-19T13:35:04;32.70;99.90
22288;DHT22;11312;51.464;6.968;2022-08-19T13:37:30;31.30;99.90
22288;DHT22;11312;51.464;6.968;2022-08-19T13:40:19;31.40;99.90
22288;DHT22;11312;51.464;6.968;2022-08-19T13:42:48;31.80;1.00
22288;DHT22;11312;51.464;6.968;2022-08-19T13:45:17;31.70;99.90
22288;DHT22;11312;51.464;6.968;2022-08-19T13:47:48;32.10;99.90
22288;DHT22;11312;51.464;6.968;2022-08-19T13:50:17;32.50;99.90
22288;DHT22;11312;51.464;6.968;2022-08-19T13:52:43;32.10;99.90
22288;DHT22;11312;51.464;6.968;2022-08-19T13:55:10;32.40;99.90
22288;DHT22;11312;51.464;6.968;2022-08-19T13:57:37;32.50;99.90
22288;DHT22;11312;51.464;6.968;2022-08-19T14:00:09;32.90;99.90
22288;DHT22;11312;51.464;6.968;2022-08-19T14:02:37;32.60;99.90
22288;DHT22;11312;51.464;6.968;2022-08-19T14:05:04;32.60;99.90
22288;DHT22;11312;51.464;6.968;2022-08-19T14:07:30;32.30;99.90
22288;DHT22;11312;51.464;6.968;2022-08-19T14:09:56;31.70;99.90
22288;DHT22;11312;51.464;6.968;2022-08-19T14:12:22;31.90;99.90
22288;DHT22;11312;51.464;6.968;2022-08-19T14:14:48;31.90;99.90
22288;DHT22;11312;51.464;6.968;2022-08-19T14:17:13;31.80;99.90
22288;DHT22;11312;51.464;6.968;2022-08-19T14:19:39;31.70;99.90
22288;DHT22;11312;51.464;6.968;2022-08-19T14:22:05;31.40;99.90
22288;DHT22;11312;51.464;6.968;2022-08-19T14:24:31;30.60;99.90
22288;DHT22;11312;51.464;6.968;2022-08-19T14:26:58;29.90;99.90
22288;DHT22;11312;51.464;6.968;2022-08-19T14:29:24;30.10;99.90
22288;DHT22;11312;51.464;6.968;2022-08-19T14:31:50;30.60;99.90
22288;DHT22;11312;51.464;6.968;2022-08-19T14:34:16;30.60;99.90
22288;DHT22;11312;51.464;6.968;2022-08-19T14:36:42;29.60;99.90
22288;DHT22;11312;51.464;6.968;2022-08-19T14:39:08;29.10;99.90
22288;DHT22;11312;51.464;6.968;2022-08-19T14:41:35;29.50;99.90
22288;DHT22;11312;51.464;6.968;2022-08-19T14:44:01;29.80;99.90
22288;DHT22;11312;51.464;6.968;2022-08-19T14:46:28;29.70;99.90
22288;DHT22;11312;51.464;6.968;2022-08-19T14:48:55;29.10;99.90
22288;DHT22;11312;51.464;6.968;2022-08-19T14:51:22;28.50;99.90
22288;DHT22;11312;51.464;6.968;2022-08-19T14:53:48;28.20;99.90
22288;DHT22;11312;51.464;6.968;2022-08-19T14:56:17;28.00;99.90
22288;DHT22;11312;51.464;6.968;2022-08-19T14:58:43;27.80;1.00
22288;DHT22;11312;51.464;6.968;2022-08-19T15:01:10;27.60;1.00
22288;DHT22;11312;51.464;6.968;2022-08-19T15:03:37;27.50;1.00
22288;DHT22;11312;51.464;6.968;2022-08-19T15:06:05;27.70;1.00
22288;DHT22;11312;51.464;6.968;2022-08-19T15:08:33;28.30;99.90
22288;DHT22;11312;51.464;6.968;2022-08-19T15:11:01;28.30;99.90
22288;DHT22;11312;51.464;6.968;2022-08-19T15:13:28;28.20;99.90
22288;DHT22;11312;51.464;6.968;2022-08-19T15:15:54;28.40;99.90
22288;DHT22;11312;51.464;6.968;2022-08-19T15:18:21;28.80;99.90
22288;DHT22;11312;51.464;6.968;2022-08-19T15:20:48;28.80;99.90
22288;DHT22;11312;51.464;6.968;2022-08-19T15:23:16;28.90;99.90
22288;DHT22;11312;51.464;6.968;2022-08-19T15:25:42;28.90;99.90
22288;DHT22;11312;51.464;6.968;2022-08-19T15:28:09;28.70;99.90
22288;DHT22;11312;51.464;6.968;2022-08-19T15:30:37;28.50;99.90
22288;DHT22;11312;51.464;6.968;2022-08-19T15:33:03;28.40;99.90
22288;DHT22;11312;51.464;6.968;2022-08-19T15:35:29;28.20;99.90
22288;DHT22;11312;51.464;6.968;2022-08-19T15:37:55;27.90;99.90
22288;DHT22;11312;51.464;6.968;2022-08-19T15:40:23;28.00;99.90
22288;DHT22;11312;51.464;6.968;2022-08-19T15:42:49;27.90;99.90